createdAt,value
2022-08-28T00:00:51.649Z,19.00
2022-08-28T00:03:21.462Z,19.02
2022-08-28T00:05:49.735Z,19.08
2022-08-28T00:08:18.930Z,19.12
2022-08-28T00:10:47.360Z,19.01
2022-08-28T00:13:20.461Z,19.08
2022-08-28T00:15:52.506Z,19.02
2022-08-28T00:18:22.805Z,18.96
2022-08-28T00:20:51.895Z,19.01
2022-08-28T00:23:21.163Z,19.09
2022-08-28T00:25:50.069Z,19.12
2022-08-28T00:28:23.383Z,19.13
2022-08-28T00:30:55.922Z,18.97
2022-08-28T00:33:29.783Z,18.89
2022-08-28T00:35:59.017Z,19.03
2022-08-28T00:38:28.643Z,18.84
2022-08-28T00:41:03.891Z,18.90
2022-08-28T00:43:39.983Z,18.68
2022-08-28T00:46:12.517Z,18.55
2022-08-28T00:48:43.253Z,18.52
2022-08-28T00:51:41.509Z,18.42
2022-08-28T00:54:10.545Z,18.24
2022-08-28T00:56:41.205Z,18.20
2022-08-28T00:59:15.377Z,18.23
2022-08-28T01:01:45.490Z,18.28
2022-08-28T01:04:18.097Z,18.09
2022-08-28T01:06:48.541Z,18.10
2022-08-28T01:09:20.909Z,18.13
2022-08-28T01:11:52.733Z,17.95
2022-08-28T01:14:23.823Z,17.99
2022-08-28T01:16:55.516Z,18.04
2022-08-28T01:19:31.445Z,17.87
2022-08-28T01:22:13.282Z,17.84
2022-08-28T01:24:45.634Z,17.82
2022-08-28T01:27:14.023Z,17.86
2022-08-28T01:29:42.424Z,17.84
2022-08-28T01:32:31.984Z,17.39
2022-08-28T01:35:02.100Z,17.47
2022-08-28T01:37:31.911Z,17.58
2022-08-28T01:40:02.350Z,17.45
2022-08-28T01:42:30.849Z,17.44
2022-08-28T01:44:59.160Z,17.39
2022-08-28T01:47:27.491Z,17.46
2022-08-28T01:49:55.716Z,17.41
2022-08-28T01:52:26.331Z,17.32
2022-08-28T01:54:54.948Z,17.38
2022-08-28T01:57:27.704Z,17.37
2022-08-28T01:59:56.414Z,17.21
2022-08-28T02:02:25.101Z,17.25
2022-08-28T02:04:53.945Z,17.20
2022-08-28T02:07:22.209Z,17.19
2022-08-28T02:09:50.562Z,17.10
2022-08-28T02:12:19.854Z,17.15
2022-08-28T02:14:49.825Z,17.15
2022-08-28T02:17:18.142Z,17.08
2022-08-28T02:19:46.509Z,17.02
2022-08-28T02:22:14.862Z,17.06
2022-08-28T02:24:43.235Z,16.93
2022-08-28T02:27:11.561Z,17.05
2022-08-28T02:29:39.904Z,17.05
2022-08-28T02:32:09.764Z,16.85
2022-08-28T02:34:39.131Z,17.13
2022-08-28T02:37:08.790Z,17.16
2022-08-28T02:39:37.133Z,16.98
2022-08-28T02:42:05.906Z,17.05
2022-08-28T02:44:35.339Z,17.08
2022-08-28T02:47:03.910Z,17.01
2022-08-28T02:49:36.090Z,16.94
2022-08-28T02:52:06.778Z,16.87
2022-08-28T02:54:35.894Z,16.86
2022-08-28T02:57:04.568Z,16.76
2022-08-28T02:59:32.976Z,16.65
2022-08-28T03:02:03.941Z,16.48
2022-08-28T03:04:34.017Z,16.58
2022-08-28T03:07:02.483Z,16.54
2022-08-28T03:09:31.375Z,16.56
2022-08-28T03:11:59.763Z,16.29
2022-08-28T03:14:28.775Z,16.44
2022-08-28T03:16:57.304Z,16.25
2022-08-28T03:19:25.630Z,16.33
2022-08-28T03:21:57.452Z,16.25
2022-08-28T03:24:26.059Z,16.22
2022-08-28T03:26:54.689Z,16.43
2022-08-28T03:29:23.064Z,16.38
2022-08-28T03:31:51.384Z,16.07
2022-08-28T03:34:19.784Z,16.31
2022-08-28T03:36:48.432Z,16.36
2022-08-28T03:39:18.216Z,16.39
2022-08-28T03:41:46.547Z,16.41
2022-08-28T03:44:15.723Z,16.28
2022-08-28T03:46:44.202Z,16.28
2022-08-28T03:49:13.438Z,16.14
2022-08-28T03:51:43.134Z,15.96
2022-08-28T03:54:11.673Z,16.05
2022-08-28T03:56:43.464Z,15.97
2022-08-28T03:59:11.803Z,16.00
2022-08-28T04:01:40.465Z,15.89
2022-08-28T04:04:09.458Z,15.79
2022-08-28T04:06:37.704Z,15.84
2022-08-28T04:09:06.438Z,15.77
2022-08-28T04:11:42.318Z,15.85
2022-08-28T04:14:11.154Z,15.95
2022-08-28T04:16:39.547Z,15.78
2022-08-28T04:19:08.005Z,15.78
2022-08-28T04:21:36.374Z,15.92
2022-08-28T04:24:09.368Z,15.84
2022-08-28T04:26:38.164Z,15.79
2022-08-28T04:29:08.254Z,15.89
2022-08-28T04:31:37.271Z,15.92
2022-08-28T04:34:08.644Z,15.84
2022-08-28T04:36:38.044Z,15.77
2022-08-28T04:39:08.685Z,15.94
2022-08-28T04:41:38.955Z,15.85
2022-08-28T04:44:09.538Z,15.69
2022-08-28T04:46:38.902Z,15.87
2022-08-28T04:49:07.200Z,15.86
2022-08-28T04:51:38.926Z,16.02
2022-08-28T04:54:11.501Z,16.08
2022-08-28T04:56:41.901Z,16.13
2022-08-28T04:59:11.840Z,16.18
2022-08-28T05:01:42.776Z,16.05
2022-08-28T05:04:13.012Z,15.88
2022-08-28T05:06:45.978Z,15.56
2022-08-28T05:09:19.182Z,15.91
2022-08-28T05:11:48.737Z,15.99
2022-08-28T05:14:20.096Z,15.97
2022-08-28T05:16:52.731Z,15.75
2022-08-28T05:19:22.934Z,15.95
2022-08-28T05:21:51.755Z,16.02
2022-08-28T05:24:21.215Z,16.03
2022-08-28T05:26:49.547Z,16.02
2022-08-28T05:29:19.406Z,15.91
2022-08-28T05:31:48.121Z,16.09
2022-08-28T05:34:17.543Z,16.17
2022-08-28T05:36:45.874Z,16.11
2022-08-28T05:39:15.019Z,15.73
2022-08-28T05:41:46.488Z,15.68
2022-08-28T05:44:18.769Z,15.62
2022-08-28T05:46:48.826Z,15.64
2022-08-28T05:49:19.396Z,15.36
2022-08-28T05:51:48.139Z,15.50
2022-08-28T05:54:17.994Z,15.75
2022-08-28T05:56:47.374Z,15.83
2022-08-28T05:59:16.728Z,15.97
2022-08-28T06:01:49.279Z,16.14
2022-08-28T06:04:22.545Z,16.07
2022-08-28T06:06:50.848Z,15.75
2022-08-28T06:09:28.137Z,15.75
2022-08-28T06:11:59.893Z,15.92
2022-08-28T06:14:29.674Z,15.80
2022-08-28T06:17:00.637Z,15.60
2022-08-28T06:19:31.914Z,15.87
2022-08-28T06:22:07.111Z,15.73
2022-08-28T06:24:35.993Z,15.77
2022-08-28T06:27:04.441Z,16.09
2022-08-28T06:29:32.789Z,16.12
2022-08-28T06:32:05.548Z,16.20
2022-08-28T06:34:33.959Z,16.48
2022-08-28T06:37:02.560Z,16.38
2022-08-28T06:39:30.910Z,16.22
2022-08-28T06:41:59.254Z,16.22
2022-08-28T06:44:27.896Z,16.43
2022-08-28T06:46:57.170Z,16.52
2022-08-28T06:49:27.110Z,16.63
2022-08-28T06:51:56.151Z,16.80
2022-08-28T06:54:24.673Z,16.90
2022-08-28T06:56:54.157Z,17.06
2022-08-28T06:59:22.620Z,16.78
2022-08-28T07:01:53.569Z,16.74
2022-08-28T07:04:22.058Z,16.88
2022-08-28T07:06:54.530Z,16.71
2022-08-28T07:09:24.823Z,16.76
2022-08-28T07:11:53.839Z,16.55
2022-08-28T07:14:22.345Z,16.61
2022-08-28T07:16:51.856Z,16.70
2022-08-28T07:19:20.340Z,16.97
2022-08-28T07:21:48.974Z,17.37
2022-08-28T07:24:19.690Z,17.58
2022-08-28T07:26:48.736Z,17.47
2022-08-28T07:29:17.287Z,17.65
2022-08-28T07:31:53.589Z,17.25
2022-08-28T07:34:27.068Z,16.84
2022-08-28T07:36:56.220Z,17.11
2022-08-28T07:39:25.962Z,17.05
2022-08-28T07:41:54.292Z,16.58
2022-08-28T07:44:40.315Z,17.03
2022-08-28T07:47:09.461Z,16.97
2022-08-28T07:49:38.307Z,17.17
2022-08-28T07:52:08.746Z,17.65
2022-08-28T07:54:40.551Z,17.29
2022-08-28T07:57:10.798Z,17.21
2022-08-28T07:59:40.897Z,17.24
2022-08-28T08:02:13.122Z,17.36
2022-08-28T08:04:41.573Z,17.64
2022-08-28T08:07:10.064Z,17.61
2022-08-28T08:09:43.126Z,17.43
2022-08-28T08:12:13.562Z,17.28
2022-08-28T08:14:43.837Z,17.35
2022-08-28T08:17:13.115Z,17.44
2022-08-28T08:19:41.774Z,17.64
2022-08-28T08:22:10.099Z,17.46
2022-08-28T08:24:39.781Z,17.45
2022-08-28T08:27:08.092Z,17.39
2022-08-28T08:29:38.672Z,17.22
2022-08-28T08:32:10.850Z,17.38
2022-08-28T08:34:41.091Z,17.50
2022-08-28T08:37:10.416Z,17.53
2022-08-28T08:39:41.620Z,17.39
2022-08-28T08:42:22.080Z,17.57
2022-08-28T08:44:52.978Z,17.63
2022-08-28T08:47:26.947Z,17.80
2022-08-28T08:49:59.506Z,18.01
2022-08-28T08:52:47.453Z,17.85
2022-08-28T08:55:28.128Z,17.94
2022-08-28T08:58:06.604Z,18.32
2022-08-28T09:00:53.769Z,18.44
2022-08-28T09:03:25.466Z,18.48
2022-08-28T09:05:59.548Z,18.26
2022-08-28T09:08:36.432Z,18.50
2022-08-28T09:11:21.447Z,18.40
2022-08-28T09:13:59.258Z,18.77
2022-08-28T09:16:33.290Z,19.20
2022-08-28T09:19:03.490Z,18.44
2022-08-28T09:21:36.580Z,18.32
2022-08-28T09:24:11.905Z,18.41
2022-08-28T09:26:41.720Z,18.42
2022-08-28T09:29:18.782Z,18.83
2022-08-28T09:31:47.197Z,18.88
2022-08-28T09:34:24.687Z,18.52
2022-08-28T09:36:54.143Z,18.66
2022-08-28T09:39:25.483Z,18.91
2022-08-28T09:42:19.917Z,19.16
2022-08-28T09:45:02.632Z,19.11
2022-08-28T09:47:49.128Z,19.33
2022-08-28T09:50:34.637Z,19.30
2022-08-28T09:53:21.855Z,19.37
2022-08-28T09:56:17.895Z,19.68
2022-08-28T09:58:50.994Z,19.77
2022-08-28T10:01:40.688Z,19.90
2022-08-28T10:04:31.702Z,20.34
2022-08-28T10:07:09.844Z,20.77
2022-08-28T10:09:50.517Z,20.64
2022-08-28T10:12:36.385Z,20.86
2022-08-28T10:15:17.188Z,20.84
2022-08-28T10:18:06.804Z,20.58
2022-08-28T10:20:47.989Z,21.12
2022-08-28T10:23:29.007Z,20.62
2022-08-28T10:26:12.368Z,21.07
2022-08-28T10:28:56.401Z,21.02
2022-08-28T10:31:36.165Z,21.44
2022-08-28T10:34:25.286Z,21.85
2022-08-28T10:37:04.247Z,21.81
2022-08-28T10:39:50.462Z,21.77
2022-08-28T10:42:35.901Z,22.00
2022-08-28T10:45:11.622Z,21.95
2022-08-28T10:47:46.837Z,21.40
2022-08-28T10:50:23.889Z,21.64
2022-08-28T10:52:59.200Z,21.24
2022-08-28T10:55:36.522Z,21.59
2022-08-28T10:58:24.381Z,21.93
2022-08-28T11:00:56.673Z,22.45
2022-08-28T11:03:34.737Z,21.82
2022-08-28T11:06:09.979Z,21.12
2022-08-28T11:08:40.661Z,21.77
2022-08-28T11:11:15.853Z,22.30
2022-08-28T11:13:59.658Z,21.93
2022-08-28T11:16:42.856Z,22.16
2022-08-28T11:19:52.301Z,22.31
2022-08-28T11:22:25.756Z,22.57
2022-08-28T11:25:08.967Z,22.45
2022-08-28T11:27:39.560Z,22.84
2022-08-28T11:30:33.890Z,22.96
2022-08-28T11:33:20.713Z,22.93
2022-08-28T11:35:52.790Z,22.16
2022-08-28T11:39:20.349Z,22.73
2022-08-28T11:42:36.110Z,22.76
2022-08-28T11:45:05.484Z,22.87
2022-08-28T11:47:57.699Z,23.26
2022-08-28T11:50:33.497Z,23.00
2022-08-28T11:53:44.708Z,22.40
2022-08-28T11:56:48.831Z,22.90
2022-08-28T12:00:01.883Z,23.38
2022-08-28T12:03:14.933Z,22.25
2022-08-28T12:05:54.986Z,23.28
2022-08-28T12:09:11.617Z,23.49
2022-08-28T12:11:53.320Z,23.03
2022-08-28T12:15:07.832Z,22.42
2022-08-28T12:17:53.159Z,22.59
2022-08-28T12:20:45.477Z,23.37
2022-08-28T12:23:44.421Z,23.51
2022-08-28T12:26:25.466Z,23.10
2022-08-28T12:28:58.308Z,23.53
2022-08-28T12:32:14.907Z,23.61
2022-08-28T12:34:50.956Z,22.89
2022-08-28T12:37:51.665Z,23.01
2022-08-28T12:40:25.326Z,23.06
2022-08-28T12:42:58.629Z,22.81
2022-08-28T12:45:32.330Z,23.07
2022-08-28T12:48:09.314Z,22.93
2022-08-28T12:50:40.116Z,23.02
2022-08-28T12:53:16.216Z,23.28
2022-08-28T12:55:47.038Z,23.07
2022-08-28T12:58:31.178Z,23.14
2022-08-28T13:01:03.533Z,23.93
2022-08-28T13:03:32.292Z,24.46
2022-08-28T13:06:07.175Z,23.58
2022-08-28T13:08:37.673Z,23.71
2022-08-28T13:11:06.678Z,23.81
2022-08-28T13:13:40.921Z,23.78
2022-08-28T13:16:10.742Z,23.99
2022-08-28T13:18:53.690Z,24.01
2022-08-28T13:21:36.104Z,24.06
2022-08-28T13:24:59.700Z,23.84
2022-08-28T13:27:29.074Z,23.25
2022-08-28T13:30:08.111Z,23.58
2022-08-28T13:32:40.411Z,23.73
2022-08-28T13:35:33.183Z,23.90
2022-08-28T13:38:04.513Z,24.24
2022-08-28T13:40:57.508Z,24.48
2022-08-28T13:43:29.355Z,23.54
2022-08-28T13:45:59.285Z,24.06
2022-08-28T13:48:29.143Z,24.28
2022-08-28T13:51:05.017Z,24.64
2022-08-28T13:53:35.664Z,23.86
2022-08-28T13:56:05.090Z,24.17
2022-08-28T13:58:33.447Z,23.83
2022-08-28T14:01:03.979Z,24.36
2022-08-28T14:03:35.753Z,23.90
2022-08-28T14:06:07.079Z,23.87
2022-08-28T14:08:36.212Z,23.73
2022-08-28T14:11:04.704Z,24.35
2022-08-28T14:13:33.095Z,24.76
2022-08-28T14:16:06.691Z,24.65
2022-08-28T14:18:35.573Z,24.70
2022-08-28T14:21:07.199Z,24.87
2022-08-28T14:23:35.635Z,24.16
2022-08-28T14:26:06.748Z,24.32
2022-08-28T14:28:35.223Z,24.22
2022-08-28T14:31:12.254Z,24.39
2022-08-28T14:33:45.204Z,23.81
2022-08-28T14:36:18.089Z,24.47
2022-08-28T14:38:46.563Z,24.46
2022-08-28T14:41:16.752Z,24.71
2022-08-28T14:43:45.852Z,24.93
2022-08-28T14:46:19.450Z,24.46
2022-08-28T14:48:48.661Z,24.28
2022-08-28T14:51:17.514Z,24.56
2022-08-28T14:53:46.313Z,24.55
2022-08-28T14:56:14.737Z,25.21
2022-08-28T14:58:43.143Z,24.73
2022-08-28T15:01:11.671Z,24.47
2022-08-28T15:03:41.476Z,24.62
2022-08-28T15:06:11.528Z,24.52
2022-08-28T15:08:41.652Z,24.96
2022-08-28T15:11:18.309Z,24.98
2022-08-28T15:13:49.978Z,25.08
2022-08-28T15:16:21.640Z,24.42
2022-08-28T15:18:51.352Z,24.56
2022-08-28T15:21:22.760Z,24.06
2022-08-28T15:23:51.565Z,24.28
2022-08-28T15:26:21.799Z,24.19
2022-08-28T15:28:51.171Z,23.89
2022-08-28T15:31:20.063Z,23.72
2022-08-28T15:33:48.376Z,23.70
2022-08-28T15:36:18.539Z,23.78
2022-08-28T15:39:04.278Z,24.43
2022-08-28T15:41:32.731Z,24.27
2022-08-28T15:44:03.040Z,24.49
2022-08-28T15:46:35.291Z,23.57
2022-08-28T15:49:07.748Z,23.96
2022-08-28T15:51:38.952Z,23.86
2022-08-28T15:54:07.805Z,24.14
2022-08-28T15:56:36.187Z,23.95
2022-08-28T15:59:04.661Z,24.19
2022-08-28T16:01:33.032Z,24.06
2022-08-28T16:04:02.408Z,23.80
2022-08-28T16:06:30.865Z,23.70
2022-08-28T16:09:00.644Z,24.06
2022-08-28T16:11:32.279Z,24.25
2022-08-28T16:14:04.485Z,24.26
2022-08-28T16:16:33.432Z,23.39
2022-08-28T16:19:02.675Z,23.05
2022-08-28T16:21:31.609Z,23.37
2022-08-28T16:24:01.443Z,23.36
2022-08-28T16:26:30.422Z,23.53
2022-08-28T16:28:58.896Z,23.63
2022-08-28T16:31:27.248Z,23.61
2022-08-28T16:33:56.901Z,23.44
2022-08-28T16:36:26.137Z,23.62
2022-08-28T16:39:00.573Z,23.60
2022-08-28T16:41:33.781Z,23.41
2022-08-28T16:44:02.076Z,23.03
2022-08-28T16:46:30.831Z,23.08
2022-08-28T16:48:59.579Z,22.98
2022-08-28T16:51:29.671Z,22.73
2022-08-28T16:53:58.957Z,22.93
2022-08-28T16:56:27.318Z,22.61
2022-08-28T16:58:57.746Z,22.94
2022-08-28T17:01:26.842Z,22.92
2022-08-28T17:03:55.586Z,23.01
2022-08-28T17:06:29.388Z,23.22
2022-08-28T17:08:59.135Z,22.82
2022-08-28T17:11:28.591Z,22.52
2022-08-28T17:13:58.566Z,22.53
2022-08-28T17:16:31.303Z,22.54
2022-08-28T17:19:00.444Z,22.72
2022-08-28T17:21:46.462Z,22.69
2022-08-28T17:24:15.180Z,22.63
2022-08-28T17:26:44.403Z,22.61
2022-08-28T17:29:14.223Z,22.42
2022-08-28T17:31:42.729Z,22.40
2022-08-28T17:34:11.940Z,22.24
2022-08-28T17:36:42.480Z,22.21
2022-08-28T17:39:13.902Z,22.27
2022-08-28T17:41:43.879Z,22.29
2022-08-28T17:44:13.848Z,21.97
2022-08-28T17:46:42.259Z,21.76
2022-08-28T17:49:10.770Z,21.74
2022-08-28T17:51:42.643Z,21.63
2022-08-28T17:54:13.954Z,21.42
2022-08-28T17:56:42.917Z,21.51
2022-08-28T17:59:13.587Z,21.39
2022-08-28T18:01:43.325Z,21.37
2022-08-28T18:04:12.077Z,21.43
2022-08-28T18:06:40.684Z,21.25
2022-08-28T18:09:10.552Z,21.21
2022-08-28T18:11:39.144Z,21.33
2022-08-28T18:14:08.340Z,21.28
2022-08-28T18:16:39.620Z,21.43
2022-08-28T18:19:11.363Z,21.41
2022-08-28T18:21:40.215Z,21.07
2022-08-28T18:24:10.229Z,21.17
2022-08-28T18:26:38.527Z,21.31
2022-08-28T18:29:07.064Z,21.18
2022-08-28T18:31:35.504Z,20.89
2022-08-28T18:34:05.502Z,20.82
2022-08-28T18:36:34.093Z,20.90
2022-08-28T18:39:02.551Z,20.76
2022-08-28T18:41:43.096Z,20.80
2022-08-28T18:44:14.231Z,20.61
2022-08-28T18:46:43.860Z,20.69
2022-08-28T18:49:14.419Z,20.52
2022-08-28T18:51:44.666Z,20.33
2022-08-28T18:54:16.495Z,20.39
2022-08-28T18:56:45.997Z,20.33
2022-08-28T18:59:16.531Z,20.23
2022-08-28T19:01:45.050Z,20.17
2022-08-28T19:04:14.865Z,20.24
2022-08-28T19:06:44.464Z,20.19
2022-08-28T19:09:20.212Z,20.02
2022-08-28T19:12:21.113Z,19.98
2022-08-28T19:14:53.541Z,19.96
2022-08-28T19:17:24.423Z,20.11
2022-08-28T19:20:00.442Z,20.04
2022-08-28T19:22:30.045Z,20.10
2022-08-28T19:24:58.624Z,19.86
2022-08-28T19:27:30.212Z,19.91
2022-08-28T19:34:27.866Z,19.41
2022-08-28T19:37:32.419Z,19.40
2022-08-28T19:49:08.480Z,19.27
2022-08-28T19:51:50.899Z,19.36
2022-08-28T19:55:49.915Z,19.42
2022-08-28T19:58:24.518Z,19.55
2022-08-28T20:00:54.404Z,19.29
2022-08-28T20:03:52.201Z,19.39
2022-08-28T20:06:59.895Z,19.31
2022-08-28T20:09:37.904Z,19.34
2022-08-28T20:12:14.723Z,19.31
2022-08-28T20:15:08.985Z,19.39
2022-08-28T20:17:49.497Z,19.14
2022-08-28T20:20:20.151Z,19.15
2022-08-28T20:22:48.866Z,19.33
2022-08-28T20:25:23.027Z,19.15
2022-08-28T20:27:52.811Z,18.86
2022-08-28T20:30:21.291Z,18.89
2022-08-28T20:32:49.929Z,18.84
2022-08-28T20:35:24.513Z,18.85
2022-08-28T20:38:23.750Z,18.72
2022-08-28T20:40:55.442Z,18.45
2022-08-28T20:43:40.121Z,18.38
2022-08-28T20:50:46.571Z,18.13
2022-08-28T21:10:43.490Z,17.80
2022-08-28T21:17:18.605Z,17.73
2022-08-28T21:20:53.073Z,17.68
2022-08-28T21:24:03.752Z,17.59
2022-08-28T21:26:53.768Z,17.57
2022-08-28T21:30:11.713Z,17.70
2022-08-28T21:33:39.830Z,17.73
2022-08-28T21:36:10.786Z,17.76
2022-08-28T21:38:39.869Z,17.72
2022-08-28T21:41:13.951Z,17.66
2022-08-28T21:43:44.978Z,17.57
2022-08-28T21:46:17.159Z,17.49
2022-08-28T21:48:50.343Z,17.43
2022-08-28T21:51:20.713Z,17.33
2022-08-28T21:53:51.004Z,17.31
2022-08-28T21:56:23.924Z,17.24
2022-08-28T21:58:54.141Z,17.09
2022-08-28T22:01:26.531Z,17.35
2022-08-28T22:03:57.167Z,17.35
2022-08-28T22:06:27.745Z,17.30
2022-08-28T22:08:57.129Z,17.37
2022-08-28T22:11:26.911Z,17.43
2022-08-28T22:13:56.889Z,17.46
2022-08-28T22:16:26.781Z,17.42
2022-08-28T22:18:56.907Z,17.39
2022-08-28T22:21:45.793Z,17.48
2022-08-28T22:24:14.953Z,17.43
2022-08-28T22:26:45.295Z,17.33
2022-08-28T22:29:14.192Z,17.30
2022-08-28T22:31:45.932Z,17.22
2022-08-28T22:34:17.753Z,17.25
2022-08-28T22:36:46.582Z,17.18
2022-08-28T22:39:15.212Z,17.04
2022-08-28T22:41:44.087Z,17.07
2022-08-28T22:44:12.476Z,17.05
2022-08-28T22:46:41.544Z,16.97
2022-08-28T22:49:10.300Z,16.90
2022-08-28T22:51:40.359Z,17.01
2022-08-28T22:54:09.167Z,16.80
2022-08-28T22:56:37.929Z,16.79
2022-08-28T22:59:06.493Z,16.85
2022-08-28T23:01:35.899Z,16.84
2022-08-28T23:04:05.264Z,16.65
2022-08-28T23:06:33.945Z,16.57
2022-08-28T23:09:03.838Z,16.54
2022-08-28T23:11:32.225Z,16.38
2022-08-28T23:14:01.230Z,16.42
2022-08-28T23:16:30.230Z,16.31
2022-08-28T23:19:14.139Z,16.39
2022-08-28T23:21:44.487Z,16.41
2022-08-28T23:24:16.472Z,16.36
2022-08-28T23:26:46.997Z,16.45
2022-08-28T23:29:15.548Z,16.23
2022-08-28T23:31:44.399Z,16.05
2022-08-28T23:34:15.242Z,16.00
2022-08-28T23:36:44.487Z,16.15
2022-08-28T23:39:14.897Z,16.23
2022-08-28T23:41:43.668Z,16.26
2022-08-28T23:44:12.408Z,16.17
2022-08-28T23:46:42.365Z,16.20
2022-08-28T23:49:11.901Z,16.11
2022-08-28T23:51:42.498Z,16.10
2022-08-28T23:54:12.297Z,15.92
2022-08-28T23:56:42.521Z,15.94
2022-08-28T23:59:12.233Z,16.07
